Time;durP1;ratioP1;P1;durP2;ratioP2;P2;SDS_P1;SDS_P2;PMS_P1;PMS_P2;Temp;Humidity;BMP_temperature;BMP_pressure;BME280_temperature;BME280_humidity;BME280_pressure;Samples;Min_cycle;Max_cycle;Signal;HPM_P1;HPM_P2
2022/02/10 00:22:09;;;;;;;26.50;14.88;;;9.00;99.90;;;;;;5181550;23;20143;-92
2022/02/10 00:34:18;;;;;;;28.50;16.58;;;8.90;99.90;;;;;;5166285;22;20183;-90
2022/02/10 00:36:39;;;;;;;28.13;16.13;;;8.90;99.90;;;;;;5185768;22;20194;-91
2022/02/10 00:38:52;;;;;;;35.83;16.08;;;8.80;99.90;;;;;;5194430;22;20173;-94
2022/02/10 00:40:53;;;;;;;32.10;16.23;;;8.70;99.90;;;;;;5168679;23;20147;-93
2022/02/10 00:42:54;;;;;;;36.63;17.13;;;8.60;99.90;;;;;;5193934;22;20166;-92
2022/02/10 00:44:54;;;;;;;34.15;16.17;;;8.60;99.90;;;;;;5168974;23;20485;-95
2022/02/10 00:46:55;;;;;;;26.35;16.75;;;8.60;99.90;;;;;;5194368;22;20142;-93
2022/02/10 00:48:56;;;;;;;36.13;18.00;;;8.50;99.90;;;;;;5168510;23;20242;-90
2022/02/10 00:50:58;;;;;;;38.05;18.92;;;8.60;99.90;;;;;;5194245;22;20142;-93
2022/02/10 00:53:06;;;;;;;29.05;17.77;;;8.60;99.90;;;;;;5194199;22;20243;-92
2022/02/10 00:55:07;;;;;;;33.30;17.58;;;8.60;99.90;;;;;;5194080;22;20186;-94
2022/02/10 00:57:09;;;;;;;32.03;16.85;;;8.60;99.90;;;;;;5169028;22;20151;-94
2022/02/10 00:59:20;;;;;;;28.90;16.50;;;8.20;99.90;;;;;;5168931;23;20613;-93
2022/02/10 01:11:32;;;;;;;31.23;18.38;;;7.70;99.90;;;;;;5194594;22;20224;-93
2022/02/10 01:24:34;;;;;;;27.83;17.27;;;7.70;99.90;;;;;;5193751;22;20166;-92
2022/02/10 01:31:14;;;;;;;33.93;17.60;;;7.60;99.90;;;;;;5194154;22;20225;-94
2022/02/10 01:33:15;;;;;;;34.13;18.83;;;7.50;99.90;;;;;;5167987;22;20177;-94
2022/02/10 01:35:20;;;;;;;34.75;18.08;;;7.50;99.90;;;;;;5193771;22;20190;-93
2022/02/10 01:37:21;;;;;;;41.10;19.20;;;7.50;99.90;;;;;;5168528;22;20169;-94
2022/02/10 01:39:29;;;;;;;40.88;19.50;;;7.40;99.90;;;;;;5219527;22;20153;-95
2022/02/10 01:58:12;;;;;;;41.97;21.57;;;7.70;99.90;;;;;;5193540;22;20580;-93
2022/02/10 02:04:55;;;;;;;41.97;21.20;;;7.70;99.90;;;;;;5193712;22;20149;-93
2022/02/10 02:06:57;;;;;;;40.07;19.77;;;7.70;99.90;;;;;;5193834;22;20154;-93
2022/02/10 02:08:59;;;;;;;37.83;20.73;;;7.60;99.90;;;;;;5193983;22;20146;-94
2022/02/10 02:11:02;;;;;;;39.90;20.87;;;7.60;99.90;;;;;;5193989;22;20527;-94
2022/02/10 02:13:03;;;;;;;39.40;20.30;;;7.50;99.90;;;;;;5168620;22;20217;-93
2022/02/10 02:15:04;;;;;;;42.70;21.40;;;7.50;99.90;;;;;;5168480;23;20185;-93
2022/02/10 02:17:06;;;;;;;38.87;21.13;;;7.80;99.90;;;;;;5168672;23;20159;-94
2022/02/10 02:19:07;;;;;;;37.73;20.73;;;7.90;99.90;;;;;;5168057;23;20170;-93
2022/02/10 02:21:09;;;;;;;39.97;20.83;;;7.80;99.90;;;;;;5193315;22;20173;-93
2022/02/10 02:23:10;;;;;;;43.53;21.43;;;7.60;99.90;;;;;;5167995;22;20163;-92
2022/02/10 02:25:11;;;;;;;44.70;21.63;;;7.90;99.90;;;;;;5193875;22;20157;-92
2022/02/10 02:27:17;;;;;;;40.43;21.50;;;8.10;99.90;;;;;;5168047;22;20146;-94
2022/02/10 02:29:26;;;;;;;41.53;21.33;;;8.20;99.90;;;;;;5168188;23;20155;-93
2022/02/10 02:31:33;;;;;;;44.70;20.50;;;7.80;99.90;;;;;;5193456;22;20585;-93
2022/02/10 02:38:10;;;;;;;45.53;20.87;;;7.10;99.90;;;;;;5193788;22;20150;-91
2022/02/10 03:03:59;;;;;;;38.43;19.90;;;7.00;99.90;;;;;;5168172;22;20151;-93
2022/02/10 03:06:28;;;;;;;46.67;21.43;;;7.10;99.90;;;;;;5193437;22;20488;-93
2022/02/10 03:08:18;;;;;;;37.37;22.30;;;7.10;99.90;;;;;;5211677;22;20611;-93
2022/02/10 03:10:39;;;;;;;41.07;21.80;;;7.30;99.90;;;;;;5168311;22;20185;-93
2022/02/10 03:12:40;;;;;;;42.43;22.03;;;7.30;99.90;;;;;;5169463;22;20159;-93
2022/02/10 03:14:47;;;;;;;46.33;22.40;;;7.50;99.90;;;;;;5169672;22;20147;-94
2022/02/10 03:19:01;;;;;;;41.10;21.73;;;7.80;99.90;;;;;;5195265;22;20161;-94
2022/02/10 04:10:11;;;;;;;58.47;27.97;;;8.10;99.90;;;;;;5194803;22;20146;-94
2022/02/10 04:14:42;;;;;;;55.87;28.83;;;8.10;99.90;;;;;;5194434;22;20574;-95
2022/02/10 04:17:14;;;;;;;61.50;30.13;;;8.20;99.90;;;;;;5169383;22;20209;-95
2022/02/10 04:20:04;;;;;;;60.07;30.57;;;8.20;99.90;;;;;;5194454;22;20292;-95
2022/02/10 04:24:21;;;;;;;58.55;29.73;;;8.30;99.90;;;;;;5219896;22;20200;-95
2022/02/10 04:26:45;;;;;;;52.33;30.23;;;8.20;99.90;;;;;;5169651;22;20175;-94
2022/02/10 04:42:34;;;;;;;62.72;30.63;;;8.40;99.90;;;;;;5194589;22;20237;-96
2022/02/10 05:02:16;;;;;;;57.97;28.40;;;8.30;99.90;;;;;;5219614;22;20176;-96
2022/02/10 05:19:33;;;;;;;52.00;26.97;;;8.20;99.90;;;;;;5219713;22;20146;-95
2022/02/10 05:21:30;;;;;;;48.57;25.40;;;8.10;99.90;;;;;;5186978;22;20150;-95
2022/02/10 05:33:31;;;;;;;53.33;27.47;;;8.10;99.90;;;;;;5193724;22;20174;-95
2022/02/10 05:35:40;;;;;;;53.43;25.87;;;8.00;99.90;;;;;;5168970;22;20186;-96
2022/02/10 05:38:04;;;;;;;48.93;25.57;;;8.10;99.90;;;;;;5193678;22;20169;-95
2022/02/10 05:40:14;;;;;;;46.17;24.53;;;8.10;99.90;;;;;;5168392;22;20627;-96
2022/02/10 05:42:51;;;;;;;47.80;25.23;;;8.10;99.90;;;;;;5168649;23;20147;-95
2022/02/10 05:44:54;;;;;;;52.03;24.77;;;8.00;99.90;;;;;;5218933;22;20169;-95
2022/02/10 05:49:40;;;;;;;46.03;24.33;;;7.90;99.90;;;;;;5193931;22;20177;-96
2022/02/10 05:54:05;;;;;;;47.10;24.53;;;7.90;99.90;;;;;;5193514;22;20227;-95
2022/02/10 05:56:15;;;;;;;51.90;24.73;;;8.00;99.90;;;;;;5168812;22;20193;-95
2022/02/10 05:58:28;;;;;;;45.27;23.53;;;8.10;99.90;;;;;;5219448;22;20172;-96
2022/02/10 06:03:11;;;;;;;50.40;24.10;;;7.90;99.90;;;;;;5194070;22;20508;-95
2022/02/10 07:04:03;;;;;;;41.13;20.97;;;8.10;99.90;;;;;;5193035;22;20169;-94
2022/02/10 07:10:23;;;;;;;44.80;20.87;;;8.10;99.90;;;;;;5194400;22;20682;-96
2022/02/10 08:00:20;;;;;;;47.63;22.43;;;8.40;99.90;;;;;;5194433;22;20154;-94
2022/02/10 09:02:22;;;;;;;32.40;16.97;;;9.00;99.90;;;;;;5196788;22;20591;-96
2022/02/10 09:04:47;;;;;;;31.03;16.43;;;9.00;99.90;;;;;;5171011;22;20212;-94
2022/02/10 09:09:34;;;;;;;30.73;16.23;;;9.00;99.90;;;;;;5197436;22;20138;-94
2022/02/10 10:01:29;;;;;;;18.77;11.87;;;8.70;99.90;;;;;;5196556;22;20158;-95
2022/02/10 10:03:36;;;;;;;19.73;12.73;;;8.80;99.90;;;;;;5170045;22;20159;-95
2022/02/10 10:05:42;;;;;;;20.08;12.25;;;8.80;99.90;;;;;;5194358;22;20640;-94
2022/02/10 10:10:31;;;;;;;22.48;12.93;;;8.90;99.90;;;;;;5194042;22;20207;-96
2022/02/10 10:13:02;;;;;;;20.03;13.13;;;9.10;99.90;;;;;;5196777;22;20157;-95
2022/02/10 10:19:29;;;;;;;21.97;13.00;;;9.50;99.90;;;;;;5195493;22;20142;-96
2022/02/10 10:44:34;;;;;;;17.67;11.07;;;9.70;99.90;;;;;;5195697;22;20150;-95
2022/02/10 10:50:01;;;;;;;22.27;11.85;;;10.40;99.90;;;;;;5193924;22;20151;-95
2022/02/10 10:54:32;;;;;;;17.88;10.65;;;10.70;99.90;;;;;;5193269;22;20169;-95
2022/02/10 10:56:37;;;;;;;18.13;10.13;;;10.60;99.90;;;;;;5168324;23;20186;-93
2022/02/10 11:40:28;;;;;;;7.28;4.65;;;10.20;99.90;;;;;;5194605;22;20146;-94
2022/02/10 11:42:42;;;;;;;9.73;5.80;;;10.20;99.90;;;;;;5169612;22;20151;-92
2022/02/10 13:48:22;;;;;;;14.27;10.38;;;10.50;99.90;;;;;;5194101;22;20156;-94
2022/02/10 14:13:28;;;;;;;22.60;12.82;;;9.90;99.90;;;;;;5193629;22;20216;-94
2022/02/10 14:17:59;;;;;;;19.02;13.10;;;9.80;99.90;;;;;;5193312;22;20213;-93
2022/02/10 14:20:10;;;;;;;18.00;12.98;;;10.10;99.90;;;;;;5168868;22;20205;-93
2022/02/10 14:22:26;;;;;;;21.25;13.32;;;10.20;99.90;;;;;;5167987;23;20147;-93
2022/02/10 14:26:48;;;;;;;18.10;12.98;;;10.80;99.90;;;;;;5219239;22;20149;-94
2022/02/10 14:28:49;;;;;;;21.02;14.05;;;10.70;99.90;;;;;;5193631;22;20201;-95
2022/02/10 14:30:50;;;;;;;20.83;13.55;;;10.60;99.90;;;;;;5219815;22;20145;-93
2022/02/10 14:32:57;;;;;;;21.17;13.55;;;10.50;99.90;;;;;;5196742;22;20578;-94
2022/02/10 14:35:08;;;;;;;20.83;13.88;;;10.40;99.90;;;;;;5167817;22;20509;-94
2022/02/10 14:39:49;;;;;;;20.02;13.77;;;10.50;99.90;;;;;;5197568;22;20185;-95
2022/02/10 15:13:19;;;;;;;7.50;3.88;;;8.70;99.90;;;;;;5220763;22;20631;-94
2022/02/10 15:17:24;;;;;;;8.97;4.03;;;8.70;99.90;;;;;;5194748;22;20263;-95
2022/02/10 15:32:38;;;;;;;10.50;3.57;;;8.40;99.90;;;;;;5199006;22;20150;-93
2022/02/10 15:56:08;;;;;;;12.90;4.10;;;8.10;99.90;;;;;;5145101;23;20259;-94
2022/02/10 16:16:52;;;;;;;21.47;11.43;;;8.20;99.90;;;;;;5096791;23;20230;-94
2022/02/10 16:18:53;;;;;;;42.07;26.23;;;8.40;99.90;;;;;;5119222;23;20148;-93
2022/02/10 16:21:02;;;;;;;22.73;6.93;;;8.30;99.90;;;;;;5169660;23;20150;-94
2022/02/10 16:23:15;;;;;;;12.23;5.67;;;8.30;99.90;;;;;;5119275;23;20164;-93
2022/02/10 16:25:18;;;;;;;20.70;10.60;;;8.10;99.90;;;;;;5120032;23;20155;-94
2022/02/10 16:29:26;;;;;;;16.13;5.90;;;7.90;99.90;;;;;;5144253;23;20226;-95
2022/02/10 16:31:26;;;;;;;17.13;5.10;;;8.00;99.90;;;;;;5143696;23;20618;-93
2022/02/10 16:33:33;;;;;;;11.90;4.03;;;8.10;99.90;;;;;;5145113;23;20174;-94
2022/02/10 16:35:34;;;;;;;15.00;3.47;;;8.20;99.90;;;;;;5172714;22;20237;-95
2022/02/10 16:37:36;;;;;;;16.60;3.23;;;8.10;99.90;;;;;;5169416;23;20160;-94
2022/02/10 16:39:39;;;;;;;10.83;3.83;;;8.10;99.90;;;;;;5169926;22;20147;-93
2022/02/10 16:41:39;;;;;;;12.93;4.73;;;8.10;99.90;;;;;;5195174;22;20158;-93
2022/02/10 16:43:42;;;;;;;12.20;2.70;;;8.00;99.90;;;;;;5220144;22;20266;-93
2022/02/10 16:45:42;;;;;;;18.97;7.07;;;7.90;99.90;;;;;;5221179;22;20133;-93
2022/02/10 16:47:43;;;;;;;32.97;14.10;;;7.90;99.90;;;;;;5195391;22;20219;-93
2022/02/10 16:49:50;;;;;;;10.67;5.67;;;7.90;99.90;;;;;;5169768;23;20201;-93
2022/02/10 16:51:51;;;;;;;10.67;3.70;;;7.90;99.90;;;;;;5170156;23;20151;-93
2022/02/10 16:53:59;;;;;;;16.13;4.03;;;8.00;99.90;;;;;;5219734;22;20200;-94
2022/02/10 16:56:07;;;;;;;11.03;4.20;;;7.80;99.90;;;;;;5169759;23;20182;-93
2022/02/10 16:58:30;;;;;;;7.33;2.53;;;7.90;99.90;;;;;;5195695;22;20207;-93
2022/02/10 17:01:01;;;;;;;9.37;2.07;;;7.60;99.90;;;;;;5168752;23;20169;-93
2022/02/10 17:17:06;;;;;;;5.80;1.73;;;7.50;99.90;;;;;;5220589;22;20269;-94
2022/02/10 17:18:51;;;;;;;11.07;1.70;;;7.50;99.90;;;;;;5193950;22;20142;-93
2022/02/10 17:25:48;;;;;;;3.57;0.73;;;7.70;99.90;;;;;;5195795;22;20240;-92
2022/02/10 17:27:55;;;;;;;5.07;1.30;;;7.40;99.90;;;;;;5168882;22;20151;-92
2022/02/10 17:36:49;;;;;;;6.27;1.40;;;7.50;99.90;;;;;;5168968;23;20692;-93
2022/02/10 17:52:16;;;;;;;5.40;1.07;;;7.10;99.90;;;;;;5193877;22;20225;-91
2022/02/10 17:54:17;;;;;;;3.27;1.57;;;6.90;99.90;;;;;;5169428;22;20174;-93
2022/02/10 17:56:18;;;;;;;1.93;0.80;;;6.70;99.90;;;;;;5193991;22;20189;-93
2022/02/10 17:58:22;;;;;;;16.37;9.87;;;6.50;99.90;;;;;;5193848;22;20165;-91
2022/02/10 18:00:25;;;;;;;31.13;15.37;;;6.60;99.90;;;;;;5168535;22;20147;-93
2022/02/10 18:02:26;;;;;;;5.17;1.40;;;6.60;99.90;;;;;;5193741;22;20212;-92
2022/02/10 18:04:27;;;;;;;4.77;1.93;;;6.70;99.90;;;;;;5194082;22;20166;-93
2022/02/10 18:06:29;;;;;;;2.67;0.90;;;6.70;99.90;;;;;;5168423;23;20221;-92
2022/02/10 18:08:35;;;;;;;7.33;1.93;;;6.70;99.90;;;;;;5193911;22;20157;-91
2022/02/10 18:13:21;;;;;;;4.70;1.03;;;6.30;99.90;;;;;;5194274;22;20150;-92
2022/02/10 18:15:24;;;;;;;3.43;1.33;;;6.20;99.90;;;;;;5193305;22;20297;-92
2022/02/10 18:17:30;;;;;;;3.97;0.83;;;6.20;99.90;;;;;;5168419;22;20520;-93
2022/02/10 18:19:44;;;;;;;3.63;1.00;;;6.10;99.90;;;;;;5193505;22;20208;-92
2022/02/10 18:26:12;;;;;;;6.33;1.97;;;6.30;99.90;;;;;;5193946;22;20150;-92
2022/02/10 18:30:21;;;;;;;1.33;0.47;;;6.00;99.90;;;;;;5193541;22;20150;-92
2022/02/10 19:09:27;;;;;;;7.47;3.37;;;6.80;99.90;;;;;;5175600;23;20150;-92
2022/02/10 19:11:28;;;;;;;4.70;1.97;;;6.80;99.90;;;;;;5179114;22;20157;-93
2022/02/10 19:13:29;;;;;;;24.30;17.77;;;6.80;99.90;;;;;;5199752;22;20170;-93
2022/02/10 19:15:34;;;;;;;3.33;1.40;;;6.70;99.90;;;;;;5173917;22;20237;-93
2022/02/10 19:17:36;;;;;;;6.63;1.90;;;6.80;99.90;;;;;;5198549;22;20212;-92
2022/02/10 19:19:37;;;;;;;4.70;1.60;;;6.80;99.90;;;;;;5197617;22;20162;-93
2022/02/10 19:21:39;;;;;;;7.03;3.43;;;6.90;99.90;;;;;;5198536;22;20154;-93
2022/02/10 19:23:42;;;;;;;15.37;6.87;;;6.80;99.90;;;;;;5198066;22;20169;-92
2022/02/10 19:25:43;;;;;;;4.07;1.50;;;6.90;99.90;;;;;;5171923;23;20155;-93
2022/02/10 19:27:44;;;;;;;5.90;1.47;;;6.90;99.90;;;;;;5199099;22;20138;-93
2022/02/10 19:29:45;;;;;;;3.17;1.50;;;7.00;99.90;;;;;;5198366;22;20169;-93
2022/02/10 19:31:47;;;;;;;5.37;2.10;;;7.10;99.90;;;;;;5173751;23;20154;-92
2022/02/10 19:33:51;;;;;;;6.30;2.10;;;7.00;99.90;;;;;;5198763;22;20225;-93
2022/02/10 19:35:53;;;;;;;4.87;2.03;;;7.10;99.90;;;;;;5198708;22;20563;-92
2022/02/10 19:37:59;;;;;;;5.30;2.43;;;6.90;99.90;;;;;;5197747;22;20146;-94
2022/02/10 19:40:03;;;;;;;7.03;2.30;;;6.80;99.90;;;;;;5201572;22;20146;-92
2022/02/10 19:42:05;;;;;;;6.57;2.00;;;6.80;99.90;;;;;;5173468;23;20520;-93
2022/02/10 19:44:07;;;;;;;5.50;2.47;;;6.80;99.90;;;;;;5173410;22;20171;-93
2022/02/10 19:46:11;;;;;;;4.13;2.20;;;6.60;99.90;;;;;;5197985;22;20147;-92
2022/02/10 19:48:14;;;;;;;4.47;1.80;;;6.50;99.90;;;;;;5172361;22;20662;-92
2022/02/10 19:50:21;;;;;;;6.00;2.00;;;6.50;99.90;;;;;;5198212;22;20147;-93
2022/02/10 19:52:22;;;;;;;7.03;2.00;;;6.50;99.90;;;;;;5171869;22;20226;-94
2022/02/10 19:54:27;;;;;;;4.03;1.60;;;6.60;99.90;;;;;;5197805;22;20166;-92
2022/02/10 19:56:29;;;;;;;4.83;1.70;;;6.50;99.90;;;;;;5199301;22;20189;-92
2022/02/10 19:58:35;;;;;;;4.40;1.80;;;6.50;99.90;;;;;;5201992;22;20151;-92
2022/02/10 20:00:41;;;;;;;3.27;1.43;;;6.50;99.90;;;;;;5179607;23;20151;-92
2022/02/10 20:02:42;;;;;;;4.10;1.60;;;6.50;99.90;;;;;;5201790;22;20204;-93
2022/02/10 20:04:43;;;;;;;5.27;1.70;;;6.60;99.90;;;;;;5177001;22;20151;-92
2022/02/10 20:06:43;;;;;;;3.47;1.80;;;6.70;99.90;;;;;;5174964;22;20463;-92
2022/02/10 20:08:47;;;;;;;5.73;2.30;;;6.80;99.90;;;;;;5225330;22;20158;-93
2022/02/10 20:10:54;;;;;;;3.83;1.90;;;6.70;99.90;;;;;;5174048;22;20189;-93
2022/02/10 20:12:54;;;;;;;5.90;2.00;;;6.50;99.90;;;;;;5198506;22;20157;-93
2022/02/10 20:14:55;;;;;;;4.83;2.13;;;6.50;99.90;;;;;;5198527;22;20142;-92
2022/02/10 20:16:57;;;;;;;5.10;2.00;;;6.70;99.90;;;;;;5174129;23;20205;-92
2022/02/10 20:19:01;;;;;;;6.70;2.40;;;6.50;99.90;;;;;;5227388;22;20130;-92
2022/02/10 20:21:03;;;;;;;4.53;2.10;;;6.40;99.90;;;;;;5199982;22;20146;-92
2022/02/10 20:23:04;;;;;;;9.87;4.43;;;6.20;99.90;;;;;;5201609;22;20150;-92
2022/02/10 20:25:07;;;;;;;8.47;3.10;;;6.20;99.90;;;;;;5175337;23;20512;-92
2022/02/10 20:27:08;;;;;;;7.47;2.20;;;6.20;99.90;;;;;;5198671;22;20629;-93
2022/02/10 20:29:11;;;;;;;4.30;1.60;;;6.00;99.90;;;;;;5173546;23;20161;-92
2022/02/10 20:31:12;;;;;;;5.33;1.50;;;6.10;99.90;;;;;;5224824;22;20149;-93
2022/02/10 20:33:12;;;;;;;4.73;1.30;;;5.90;99.90;;;;;;5173208;22;20197;-92
2022/02/10 20:35:14;;;;;;;2.93;1.60;;;5.80;99.90;;;;;;5173763;22;20183;-91
2022/02/10 20:37:15;;;;;;;5.30;1.73;;;5.80;99.90;;;;;;5224995;22;20161;-91
2022/02/10 20:39:23;;;;;;;3.20;1.60;;;5.70;99.90;;;;;;5200152;22;20154;-93
2022/02/10 20:41:28;;;;;;;4.93;1.60;;;5.50;99.90;;;;;;5198279;22;20562;-92
2022/02/10 20:43:30;;;;;;;5.33;1.20;;;5.50;99.90;;;;;;5173690;22;20179;-93
2022/02/10 20:45:36;;;;;;;5.53;1.10;;;5.50;99.90;;;;;;5173113;23;20165;-92
2022/02/10 20:47:36;;;;;;;6.23;1.33;;;5.50;99.90;;;;;;5199398;22;20208;-92
2022/02/10 20:49:37;;;;;;;3.33;1.00;;;5.50;99.90;;;;;;5222761;22;20228;-91
2022/02/10 20:51:38;;;;;;;2.00;1.00;;;5.60;99.90;;;;;;5178414;22;20225;-93
2022/02/10 20:53:42;;;;;;;3.13;1.00;;;5.40;99.90;;;;;;5202694;22;20197;-92
2022/02/10 20:55:43;;;;;;;3.70;1.10;;;5.30;99.90;;;;;;5177014;23;20210;-93
2022/02/10 20:57:44;;;;;;;3.53;1.07;;;5.50;99.90;;;;;;5201537;22;20158;-92
2022/02/10 20:59:47;;;;;;;3.03;1.10;;;5.60;99.90;;;;;;5201034;22;20130;-94
2022/02/10 21:01:54;;;;;;;3.20;0.90;;;5.60;99.90;;;;;;5199732;22;20150;-92
2022/02/10 21:03:59;;;;;;;1.67;0.90;;;5.70;99.90;;;;;;5200836;22;20172;-92
2022/02/10 21:08:38;;;;;;;1.83;1.00;;;5.70;99.90;;;;;;5199277;22;20151;-93
2022/02/10 21:10:42;;;;;;;4.97;1.10;;;5.80;99.90;;;;;;5198254;22;20150;-92
2022/02/10 21:12:45;;;;;;;1.93;1.00;;;5.80;99.90;;;;;;5203430;22;20147;-92
2022/02/10 21:14:48;;;;;;;3.17;1.00;;;5.80;99.90;;;;;;5200103;22;20613;-92
2022/02/10 21:16:49;;;;;;;3.97;1.30;;;5.70;99.90;;;;;;5200037;22;20205;-93
2022/02/10 21:18:51;;;;;;;5.03;1.07;;;5.70;99.90;;;;;;5200398;22;20155;-92
2022/02/10 21:20:58;;;;;;;3.57;1.23;;;5.80;99.90;;;;;;5199086;22;20161;-92
2022/02/10 21:23:19;;;;;;;3.17;1.27;;;5.80;99.90;;;;;;5174062;22;20150;-92
2022/02/10 21:25:23;;;;;;;3.90;1.50;;;5.80;99.90;;;;;;5173712;23;20166;-93
2022/02/10 21:29:26;;;;;;;6.33;1.47;;;5.70;99.90;;;;;;5200708;22;20200;-93
2022/02/10 21:31:30;;;;;;;2.47;1.20;;;5.80;99.90;;;;;;5200345;22;20150;-92
2022/02/10 21:37:58;;;;;;;5.73;1.60;;;5.90;99.90;;;;;;5199637;22;20171;-93
2022/02/10 21:40:15;;;;;;;4.30;1.90;;;5.90;99.90;;;;;;5199243;22;20188;-92
2022/02/10 21:55:04;;;;;;;7.70;2.40;;;5.80;99.90;;;;;;5225282;22;20179;-93
2022/02/10 22:17:15;;;;;;;6.70;3.53;;;5.30;99.90;;;;;;5225177;22;20219;-93
2022/02/10 22:19:19;;;;;;;8.63;4.07;;;5.20;99.90;;;;;;5199310;22;20150;-93
2022/02/10 22:21:27;;;;;;;6.40;3.47;;;5.20;99.90;;;;;;5173458;22;20216;-94
2022/02/10 22:23:30;;;;;;;6.37;3.70;;;5.20;99.90;;;;;;5200054;22;20176;-93
2022/02/10 22:25:32;;;;;;;6.10;3.53;;;5.20;99.90;;;;;;5200500;22;20168;-93
2022/02/10 22:27:38;;;;;;;6.60;3.57;;;5.20;99.90;;;;;;5200737;22;20154;-92
2022/02/10 22:29:47;;;;;;;8.23;3.77;;;5.20;99.90;;;;;;5199806;22;20143;-93
2022/02/10 22:32:05;;;;;;;7.63;4.17;;;5.20;99.90;;;;;;5174994;22;20204;-93
2022/02/10 22:36:22;;;;;;;11.60;4.53;;;5.10;99.90;;;;;;5198709;22;20197;-92
2022/02/10 22:38:23;;;;;;;8.67;4.43;;;5.00;99.90;;;;;;5172718;23;20663;-92
2022/02/10 22:40:56;;;;;;;10.97;5.00;;;4.90;99.90;;;;;;5199075;22;20181;-93
2022/02/10 22:42:56;;;;;;;8.10;4.83;;;5.10;99.90;;;;;;5200189;22;20149;-92
2022/02/10 22:44:59;;;;;;;12.27;4.90;;;5.10;99.90;;;;;;5199195;22;20146;-93
2022/02/10 22:47:01;;;;;;;9.10;5.00;;;5.20;99.90;;;;;;5175069;22;20649;-93
2022/02/10 22:49:05;;;;;;;11.17;4.83;;;5.20;99.90;;;;;;5198805;22;20150;-93
2022/02/10 22:51:06;;;;;;;11.03;5.23;;;5.20;99.90;;;;;;5200875;22;20540;-94
2022/02/10 22:53:07;;;;;;;9.77;5.13;;;5.10;99.90;;;;;;5174233;22;20171;-93
2022/02/10 22:55:07;;;;;;;9.20;5.23;;;5.00;99.90;;;;;;5200695;22;20566;-93
2022/02/10 22:57:08;;;;;;;9.80;5.53;;;4.90;99.90;;;;;;5174284;23;20218;-93
2022/02/10 22:59:13;;;;;;;9.50;5.23;;;5.00;99.90;;;;;;5199100;22;20512;-93
2022/02/10 23:01:15;;;;;;;9.87;5.10;;;5.00;99.90;;;;;;5199862;22;20213;-92
2022/02/10 23:03:36;;;;;;;7.90;4.57;;;5.00;99.90;;;;;;5174200;22;20253;-93
2022/02/10 23:05:38;;;;;;;8.80;4.93;;;5.00;99.90;;;;;;5200459;22;20146;-93
2022/02/10 23:07:39;;;;;;;11.40;5.77;;;5.00;99.90;;;;;;5174034;23;20151;-92
2022/02/10 23:11:44;;;;;;;11.90;5.67;;;5.20;99.90;;;;;;5198042;22;20142;-92
2022/02/10 23:13:46;;;;;;;10.67;4.83;;;5.10;99.90;;;;;;5176026;22;20225;-92
2022/02/10 23:15:48;;;;;;;9.63;5.10;;;5.00;99.90;;;;;;5198390;22;20618;-92
2022/02/10 23:17:49;;;;;;;9.53;5.20;;;5.00;99.90;;;;;;5173910;23;20150;-93
2022/02/10 23:19:49;;;;;;;13.10;5.10;;;4.90;99.90;;;;;;5199271;22;20150;-93
2022/02/10 23:21:50;;;;;;;13.00;5.03;;;4.90;99.90;;;;;;5173942;22;20151;-92
2022/02/10 23:23:53;;;;;;;9.27;5.00;;;5.00;99.90;;;;;;5173843;22;20194;-93
2022/02/10 23:25:55;;;;;;;10.47;4.87;;;5.10;99.90;;;;;;5224768;22;20159;-92
2022/02/10 23:27:57;;;;;;;8.53;4.87;;;5.10;99.90;;;;;;5174617;23;20206;-93
2022/02/10 23:30:12;;;;;;;11.77;5.10;;;5.10;99.90;;;;;;5177206;22;20197;-92
2022/02/10 23:32:13;;;;;;;16.83;5.07;;;5.10;99.90;;;;;;5199585;22;20641;-92
2022/02/10 23:34:14;;;;;;;10.03;5.03;;;5.00;99.90;;;;;;5202315;22;20158;-93
2022/02/10 23:38:28;;;;;;;11.40;4.73;;;4.90;99.90;;;;;;5227802;22;20169;-93
2022/02/10 23:40:31;;;;;;;8.93;4.70;;;4.90;99.90;;;;;;5225361;22;20184;-93
2022/02/10 23:42:33;;;;;;;8.20;4.20;;;4.90;99.90;;;;;;5199894;22;20153;-92
2022/02/10 23:44:39;;;;;;;12.23;4.20;;;4.70;99.90;;;;;;5200907;22;20185;-93
2022/02/10 23:46:42;;;;;;;13.87;5.33;;;4.60;99.90;;;;;;5173115;23;20211;-93
2022/02/10 23:48:43;;;;;;;9.67;4.10;;;4.50;99.90;;;;;;5174076;22;20238;-93
2022/02/10 23:50:43;;;;;;;16.53;4.60;;;4.40;99.90;;;;;;5174644;22;20158;-92
2022/02/10 23:52:46;;;;;;;9.03;3.87;;;4.60;99.90;;;;;;5175479;22;20181;-92
2022/02/10 23:54:53;;;;;;;8.27;3.83;;;4.70;99.90;;;;;;5175365;23;20159;-91
2022/02/10 23:57:09;;;;;;;10.50;4.40;;;4.60;99.90;;;;;;5200004;22;20182;-93
2022/02/10 23:59:19;;;;;;;11.53;3.77;;;4.60;99.90;;;;;;5199663;22;20173;-93
